createdAt,value
2022-10-31T00:01:03.079Z,8.89
2022-10-31T00:03:31.288Z,8.87
2022-10-31T00:06:02.699Z,8.86
2022-10-31T00:08:30.876Z,8.88
2022-10-31T00:10:59.014Z,8.88
2022-10-31T00:13:27.161Z,8.88
2022-10-31T00:15:55.265Z,8.88
2022-10-31T00:18:23.497Z,8.89
2022-10-31T00:21:00.016Z,8.95
2022-10-31T00:23:29.508Z,9.01
2022-10-31T00:26:03.044Z,9.05
2022-10-31T00:28:32.812Z,9.06
2022-10-31T00:31:02.147Z,9.08
2022-10-31T00:33:30.753Z,9.15
2022-10-31T00:35:59.048Z,9.19
2022-10-31T00:38:27.205Z,9.22
2022-10-31T00:40:56.636Z,9.23
2022-10-31T00:43:24.845Z,9.24
2022-10-31T00:45:52.976Z,9.26
2022-10-31T00:48:21.086Z,9.28
2022-10-31T00:50:50.516Z,9.33
2022-10-31T00:53:18.644Z,9.34
2022-10-31T00:55:48.054Z,9.31
2022-10-31T00:58:17.867Z,9.31
2022-10-31T01:00:49.432Z,9.35
2022-10-31T01:03:19.267Z,9.38
2022-10-31T01:05:47.308Z,9.39
2022-10-31T01:08:15.716Z,9.40
2022-10-31T01:10:44.937Z,9.39
2022-10-31T01:13:13.992Z,9.41
2022-10-31T01:15:43.435Z,9.43
2022-10-31T01:18:11.647Z,9.45
2022-10-31T01:20:39.735Z,9.46
2022-10-31T01:23:07.863Z,9.47
2022-10-31T01:25:35.965Z,9.45
2022-10-31T01:28:04.112Z,9.44
2022-10-31T01:30:32.182Z,9.43
2022-10-31T01:33:01.854Z,9.45
2022-10-31T01:35:30.726Z,9.47
2022-10-31T01:37:58.913Z,9.49
2022-10-31T01:40:31.586Z,9.46
2022-10-31T01:43:00.047Z,9.44
2022-10-31T01:45:28.423Z,9.40
2022-10-31T01:47:56.730Z,9.37
2022-10-31T01:50:34.990Z,9.32
2022-10-31T01:53:04.013Z,9.30
2022-10-31T01:55:35.637Z,9.30
2022-10-31T01:58:09.435Z,9.31
2022-10-31T02:00:39.037Z,9.32
2022-10-31T02:03:07.223Z,9.32
2022-10-31T02:05:37.746Z,9.33
2022-10-31T02:08:11.155Z,9.34
2022-10-31T02:10:39.856Z,9.34
2022-10-31T02:13:10.514Z,9.31
2022-10-31T02:15:47.548Z,9.31
2022-10-31T02:18:16.003Z,9.32
2022-10-31T02:20:56.755Z,9.35
2022-10-31T02:23:53.759Z,9.31
2022-10-31T02:26:43.966Z,9.20
2022-10-31T02:29:47.603Z,9.14
2022-10-31T02:32:24.505Z,9.15
2022-10-31T02:34:59.607Z,9.14
2022-10-31T02:37:36.906Z,9.14
2022-10-31T02:40:11.497Z,9.14
2022-10-31T02:43:05.756Z,9.14
2022-10-31T02:45:41.225Z,9.12
2022-10-31T02:48:14.617Z,9.14
2022-10-31T02:50:51.007Z,9.12
2022-10-31T02:53:19.168Z,9.10
2022-10-31T02:55:58.275Z,9.11
2022-10-31T02:58:31.425Z,9.10
2022-10-31T03:01:27.788Z,9.09
2022-10-31T03:04:13.526Z,9.08
2022-10-31T03:06:51.754Z,9.06
2022-10-31T03:09:26.814Z,9.06
2022-10-31T03:12:03.312Z,9.06
2022-10-31T03:14:41.237Z,9.04
2022-10-31T03:17:16.423Z,9.02
2022-10-31T03:19:50.308Z,9.00
2022-10-31T03:22:21.675Z,8.95
2022-10-31T03:24:50.794Z,8.98
2022-10-31T03:27:26.535Z,8.96
2022-10-31T03:29:58.126Z,8.95
2022-10-31T03:32:31.303Z,8.93
2022-10-31T03:35:04.753Z,8.86
2022-10-31T03:37:36.514Z,8.74
2022-10-31T03:40:08.775Z,8.66
2022-10-31T03:42:42.694Z,8.53
2022-10-31T03:45:15.116Z,8.37
2022-10-31T03:47:45.619Z,8.25
2022-10-31T03:50:17.578Z,8.14
2022-10-31T03:52:52.202Z,8.06
2022-10-31T03:55:26.275Z,8.00
2022-10-31T03:58:02.104Z,7.94
2022-10-31T04:00:33.765Z,7.94
2022-10-31T04:03:08.124Z,8.10
2022-10-31T04:05:40.765Z,8.26
2022-10-31T04:08:14.945Z,8.35
2022-10-31T04:10:49.195Z,8.46
2022-10-31T04:13:22.471Z,8.51
2022-10-31T04:15:59.595Z,8.54
2022-10-31T04:18:28.265Z,8.55
2022-10-31T04:21:05.617Z,8.58
2022-10-31T04:23:35.104Z,8.61
2022-10-31T04:26:12.506Z,8.63
2022-10-31T04:28:40.801Z,8.70
2022-10-31T04:31:08.825Z,8.78
2022-10-31T04:33:39.082Z,8.79
2022-10-31T04:36:09.344Z,8.81
2022-10-31T04:38:37.612Z,8.85
2022-10-31T04:41:13.348Z,8.92
2022-10-31T04:44:00.031Z,8.99
2022-10-31T04:46:29.282Z,9.00
2022-10-31T04:48:59.247Z,9.00
2022-10-31T04:51:28.646Z,9.01
2022-10-31T04:53:57.416Z,9.01
2022-10-31T04:56:25.556Z,9.02
2022-10-31T04:58:58.575Z,9.00
2022-10-31T05:01:29.156Z,9.01
2022-10-31T05:03:59.204Z,9.01
2022-10-31T05:06:28.597Z,8.85
2022-10-31T05:08:56.794Z,8.65
2022-10-31T05:11:24.915Z,8.54
2022-10-31T05:13:54.995Z,8.46
2022-10-31T05:16:42.993Z,8.46
2022-10-31T05:19:29.672Z,8.45
2022-10-31T05:22:17.823Z,8.45
2022-10-31T05:24:46.054Z,8.48
2022-10-31T05:27:15.144Z,8.48
2022-10-31T05:29:43.875Z,8.50
2022-10-31T05:32:11.946Z,8.50
2022-10-31T05:34:58.334Z,8.50
2022-10-31T05:37:48.972Z,8.49
2022-10-31T05:40:19.084Z,8.46
2022-10-31T05:42:48.067Z,8.46
2022-10-31T05:45:18.394Z,8.51
2022-10-31T05:47:54.737Z,8.53
2022-10-31T05:50:41.571Z,8.53
2022-10-31T05:53:13.163Z,8.56
2022-10-31T05:55:42.746Z,8.60
2022-10-31T05:58:14.070Z,8.63
2022-10-31T06:00:49.521Z,8.66
2022-10-31T06:03:18.039Z,8.64
2022-10-31T06:05:52.291Z,8.63
2022-10-31T06:08:26.836Z,8.64
2022-10-31T06:10:56.843Z,8.70
2022-10-31T06:13:44.875Z,8.72
2022-10-31T06:16:20.315Z,8.74
2022-10-31T06:18:48.514Z,8.77
2022-10-31T06:21:18.991Z,8.76
2022-10-31T06:23:51.314Z,8.77
2022-10-31T06:26:37.792Z,8.79
2022-10-31T06:29:06.431Z,8.80
2022-10-31T06:32:00.175Z,8.80
2022-10-31T06:34:29.739Z,8.80
2022-10-31T06:36:57.913Z,8.82
2022-10-31T06:39:29.106Z,8.81
2022-10-31T06:41:57.216Z,8.80
2022-10-31T06:44:28.177Z,8.80
2022-10-31T06:46:56.344Z,8.82
2022-10-31T06:49:43.085Z,8.87
2022-10-31T06:52:15.565Z,8.87
2022-10-31T06:54:45.046Z,8.88
2022-10-31T06:57:16.424Z,8.90
2022-10-31T06:59:44.677Z,8.93
2022-10-31T07:02:17.887Z,8.99
2022-10-31T07:04:46.193Z,8.99
2022-10-31T07:07:16.276Z,9.00
2022-10-31T07:09:45.711Z,9.00
2022-10-31T07:12:18.034Z,9.02
2022-10-31T07:14:58.415Z,9.01
2022-10-31T07:17:29.825Z,9.01
2022-10-31T07:20:01.116Z,9.01
2022-10-31T07:22:34.998Z,9.02
2022-10-31T07:25:06.755Z,9.00
2022-10-31T07:27:53.494Z,9.00
2022-10-31T07:30:21.914Z,9.01
2022-10-31T07:32:53.044Z,9.02
2022-10-31T07:35:25.521Z,9.04
2022-10-31T07:37:58.963Z,9.08
2022-10-31T07:40:28.867Z,9.08
2022-10-31T07:43:00.035Z,9.08
2022-10-31T07:45:54.378Z,9.13
2022-10-31T07:48:48.100Z,9.19
2022-10-31T07:51:34.715Z,9.26
2022-10-31T07:54:21.533Z,9.28
2022-10-31T07:56:51.103Z,9.30
2022-10-31T07:59:19.302Z,9.28
2022-10-31T08:01:47.810Z,9.28
2022-10-31T08:04:34.666Z,9.30
2022-10-31T08:07:21.467Z,9.35
2022-10-31T08:09:57.896Z,9.40
2022-10-31T08:12:31.669Z,9.45
2022-10-31T08:15:00.197Z,9.48
2022-10-31T08:17:28.446Z,9.53
2022-10-31T08:19:59.875Z,9.59
2022-10-31T08:22:41.276Z,9.64
2022-10-31T08:25:12.544Z,9.69
2022-10-31T08:27:42.335Z,9.73
2022-10-31T08:30:18.448Z,9.74
2022-10-31T08:33:02.408Z,9.77
2022-10-31T08:35:49.575Z,9.82
2022-10-31T08:38:40.167Z,9.88
2022-10-31T08:41:10.926Z,9.96
2022-10-31T08:43:40.466Z,10.02
2022-10-31T08:46:09.134Z,10.12
2022-10-31T08:48:38.355Z,10.21
2022-10-31T08:51:06.807Z,10.28
2022-10-31T08:53:35.088Z,10.34
2022-10-31T08:56:23.359Z,10.41
2022-10-31T08:58:59.344Z,10.42
2022-10-31T09:01:36.862Z,10.45
2022-10-31T09:04:07.548Z,10.48
2022-10-31T09:06:38.039Z,10.51
2022-10-31T09:09:06.562Z,10.59
2022-10-31T09:11:34.669Z,10.65
2022-10-31T09:14:22.792Z,10.71
2022-10-31T09:17:09.244Z,10.80
2022-10-31T09:20:02.934Z,10.88
2022-10-31T09:22:34.816Z,10.93
2022-10-31T09:25:03.465Z,10.97
2022-10-31T09:27:31.641Z,11.02
2022-10-31T09:30:01.809Z,11.06
2022-10-31T09:32:30.555Z,11.05
2022-10-31T09:34:59.001Z,11.06
2022-10-31T09:37:27.157Z,11.14
2022-10-31T09:39:55.344Z,11.17
2022-10-31T09:42:49.187Z,11.18
2022-10-31T09:45:32.886Z,11.32
2022-10-31T09:48:21.662Z,11.49
2022-10-31T09:51:13.193Z,11.51
2022-10-31T09:54:03.566Z,11.59
2022-10-31T09:56:34.265Z,11.56
2022-10-31T09:59:05.395Z,11.53
2022-10-31T10:01:45.227Z,11.61
2022-10-31T10:04:29.144Z,11.74
2022-10-31T10:07:16.657Z,11.91
2022-10-31T10:09:45.006Z,11.97
2022-10-31T10:12:50.724Z,12.28
2022-10-31T10:15:33.952Z,12.42
2022-10-31T10:18:29.396Z,12.20
2022-10-31T10:21:12.264Z,11.98
2022-10-31T10:23:54.204Z,11.68
2022-10-31T10:26:24.233Z,11.57
2022-10-31T10:32:27.456Z,11.58
2022-10-31T10:35:04.354Z,11.69
2022-10-31T10:37:36.315Z,11.78
2022-10-31T10:40:16.418Z,11.79
2022-10-31T10:43:04.747Z,11.82
2022-10-31T10:45:50.393Z,11.77
2022-10-31T10:48:34.305Z,11.89
2022-10-31T10:51:03.791Z,11.97
2022-10-31T10:54:03.217Z,12.05
2022-10-31T10:56:47.874Z,12.06
2022-10-31T10:59:20.340Z,12.00
2022-10-31T11:01:52.115Z,12.02
2022-10-31T11:04:36.790Z,12.11
2022-10-31T11:07:09.081Z,12.42
2022-10-31T11:09:38.194Z,12.63
2022-10-31T11:12:11.108Z,12.65
2022-10-31T11:14:47.875Z,12.55
2022-10-31T11:17:24.641Z,12.50
2022-10-31T11:20:02.745Z,12.50
2022-10-31T11:22:32.653Z,12.40
2022-10-31T11:25:00.822Z,12.38
2022-10-31T11:27:29.332Z,12.34
2022-10-31T11:30:07.321Z,12.35
2022-10-31T11:32:35.805Z,12.51
2022-10-31T11:35:11.433Z,12.58
2022-10-31T11:37:45.909Z,12.79
2022-10-31T11:40:21.481Z,13.02
2022-10-31T11:42:52.291Z,13.25
2022-10-31T11:45:31.947Z,13.18
2022-10-31T11:48:03.338Z,13.47
2022-10-31T11:50:39.537Z,13.21
2022-10-31T11:53:17.116Z,13.24
2022-10-31T11:55:46.543Z,13.17
2022-10-31T11:58:34.468Z,12.87
2022-10-31T12:01:03.413Z,12.45
2022-10-31T12:03:43.305Z,12.14
2022-10-31T12:06:18.959Z,11.96
2022-10-31T12:08:49.363Z,11.92
2022-10-31T12:11:33.699Z,11.94
2022-10-31T12:14:12.763Z,12.03
2022-10-31T12:16:49.365Z,12.04
2022-10-31T12:19:29.297Z,12.11
2022-10-31T12:22:08.801Z,12.11
2022-10-31T12:24:53.371Z,12.04
2022-10-31T12:27:33.446Z,12.00
2022-10-31T12:30:14.669Z,11.93
2022-10-31T12:32:59.826Z,11.87
2022-10-31T12:35:42.354Z,11.86
2022-10-31T12:38:27.192Z,11.93
2022-10-31T12:41:11.108Z,12.04
2022-10-31T12:43:44.198Z,11.98
2022-10-31T12:46:26.116Z,11.91
2022-10-31T12:49:19.094Z,11.83
2022-10-31T12:52:00.815Z,11.78
2022-10-31T12:54:49.955Z,11.77
2022-10-31T12:57:29.854Z,11.79
2022-10-31T13:00:03.921Z,11.81
2022-10-31T13:02:36.855Z,11.86
2022-10-31T13:05:13.859Z,11.95
2022-10-31T13:07:46.333Z,11.99
2022-10-31T13:10:22.171Z,12.03
2022-10-31T13:12:55.735Z,12.03
2022-10-31T13:15:25.507Z,12.05
2022-10-31T13:17:57.837Z,12.07
2022-10-31T13:20:30.159Z,12.13
2022-10-31T13:23:17.893Z,12.20
2022-10-31T13:25:59.704Z,12.25
2022-10-31T13:28:40.838Z,12.28
2022-10-31T13:31:09.069Z,12.26
2022-10-31T13:33:42.844Z,12.24
2022-10-31T13:36:24.031Z,12.29
2022-10-31T13:38:56.712Z,12.35
2022-10-31T13:41:37.032Z,12.39
2022-10-31T13:44:13.335Z,12.34
2022-10-31T13:49:39.295Z,11.99
2022-10-31T13:52:15.613Z,11.89
2022-10-31T13:54:46.143Z,11.87
2022-10-31T13:57:21.020Z,11.87
2022-10-31T13:59:54.009Z,11.97
2022-10-31T14:02:28.822Z,12.07
2022-10-31T14:05:00.294Z,12.23
2022-10-31T14:07:30.732Z,12.32
2022-10-31T14:10:03.597Z,12.30
2022-10-31T14:12:36.484Z,12.29
2022-10-31T14:15:15.966Z,12.25
2022-10-31T14:17:50.004Z,12.23
2022-10-31T14:20:39.994Z,12.18
2022-10-31T14:23:36.667Z,12.14
2022-10-31T14:26:22.102Z,12.08
2022-10-31T14:28:51.535Z,12.04
2022-10-31T14:31:40.665Z,11.99
2022-10-31T14:34:23.869Z,11.98
2022-10-31T14:37:03.870Z,11.95
2022-10-31T14:39:36.393Z,11.93
2022-10-31T14:42:17.392Z,11.90
2022-10-31T14:45:04.482Z,11.89
2022-10-31T14:47:42.690Z,11.86
2022-10-31T14:50:32.055Z,11.83
2022-10-31T14:53:05.627Z,11.78
2022-10-31T14:55:33.996Z,11.75
2022-10-31T14:58:04.082Z,11.79
2022-10-31T15:00:34.616Z,11.80
2022-10-31T15:03:14.559Z,11.73
2022-10-31T15:05:47.584Z,11.69
2022-10-31T15:08:28.867Z,11.63
2022-10-31T15:10:57.010Z,11.54
2022-10-31T15:13:25.516Z,11.49
2022-10-31T15:15:56.436Z,11.42
2022-10-31T15:18:28.974Z,11.38
2022-10-31T15:20:58.691Z,11.34
2022-10-31T15:23:29.603Z,11.32
2022-10-31T15:26:01.694Z,11.28
2022-10-31T15:28:32.305Z,11.26
2022-10-31T15:31:03.181Z,11.30
2022-10-31T15:33:38.734Z,11.27
2022-10-31T15:36:08.577Z,11.23
2022-10-31T15:38:36.887Z,11.24
2022-10-31T15:41:09.221Z,11.19
2022-10-31T15:43:40.973Z,11.14
2022-10-31T15:46:11.255Z,11.11
2022-10-31T15:48:45.656Z,11.10
2022-10-31T15:51:14.013Z,11.10
2022-10-31T15:53:49.014Z,11.08
2022-10-31T15:56:23.104Z,11.09
2022-10-31T15:58:54.571Z,11.10
2022-10-31T16:01:25.626Z,11.07
2022-10-31T16:04:04.993Z,11.05
2022-10-31T16:06:34.927Z,11.00
2022-10-31T16:09:03.823Z,10.95
2022-10-31T16:11:36.965Z,10.95
2022-10-31T16:14:09.149Z,10.91
2022-10-31T16:16:49.310Z,10.87
2022-10-31T16:19:22.807Z,10.83
2022-10-31T16:21:54.843Z,10.80
2022-10-31T16:24:27.305Z,10.73
2022-10-31T16:27:05.191Z,10.64
2022-10-31T16:29:38.041Z,10.58
2022-10-31T16:32:06.769Z,10.53
2022-10-31T16:34:36.213Z,10.49
2022-10-31T16:37:04.552Z,10.46
2022-10-31T16:39:32.636Z,10.42
2022-10-31T16:42:00.851Z,10.42
2022-10-31T16:44:29.350Z,10.39
2022-10-31T16:47:11.970Z,10.34
2022-10-31T16:49:41.451Z,10.32
2022-10-31T16:52:09.530Z,10.30
2022-10-31T16:54:38.223Z,10.29
2022-10-31T16:57:07.985Z,10.28
2022-10-31T16:59:36.587Z,10.25
2022-10-31T17:02:05.961Z,10.27
2022-10-31T17:04:34.296Z,10.27
2022-10-31T17:07:03.790Z,10.27
2022-10-31T17:09:31.966Z,10.27
2022-10-31T17:12:00.251Z,10.27
2022-10-31T17:14:28.477Z,10.23
2022-10-31T17:16:58.964Z,10.24
2022-10-31T17:19:27.214Z,10.22
2022-10-31T17:21:55.375Z,10.22
2022-10-31T17:24:24.871Z,10.22
2022-10-31T17:26:52.995Z,10.21
2022-10-31T17:29:21.145Z,10.21
2022-10-31T17:31:49.426Z,10.22
2022-10-31T17:34:19.381Z,10.20
2022-10-31T17:36:51.395Z,10.20
2022-10-31T17:39:19.924Z,10.20
2022-10-31T17:41:52.451Z,10.21
2022-10-31T17:44:20.915Z,10.20
2022-10-31T17:46:50.440Z,10.19
2022-10-31T17:49:18.723Z,10.20
2022-10-31T17:51:46.794Z,10.19
2022-10-31T17:54:18.498Z,10.20
2022-10-31T17:56:46.697Z,10.21
2022-10-31T17:59:16.076Z,10.22
2022-10-31T18:01:44.320Z,10.22
2022-10-31T18:04:12.669Z,10.22
2022-10-31T18:06:40.853Z,10.23
2022-10-31T18:09:09.144Z,10.22
2022-10-31T18:11:37.365Z,10.22
2022-10-31T18:14:05.893Z,10.22
2022-10-31T18:19:06.001Z,10.23
2022-10-31T18:21:34.084Z,10.25
2022-10-31T18:24:03.356Z,10.25
2022-10-31T18:26:31.712Z,10.26
2022-10-31T18:29:00.084Z,10.26
2022-10-31T18:31:28.417Z,10.26
2022-10-31T18:33:58.285Z,10.25
2022-10-31T18:36:26.863Z,10.23
2022-10-31T18:38:55.173Z,10.21
2022-10-31T18:41:23.433Z,10.17
2022-10-31T18:43:52.138Z,10.10
2022-10-31T18:46:21.234Z,10.08
2022-10-31T18:48:49.454Z,10.04
2022-10-31T18:51:19.201Z,10.04
2022-10-31T18:53:52.080Z,10.02
2022-10-31T18:56:20.812Z,10.01
2022-10-31T18:58:49.322Z,9.99
2022-10-31T19:01:19.012Z,10.01
2022-10-31T19:03:47.579Z,10.04
2022-10-31T19:06:15.705Z,10.05
2022-10-31T19:08:45.115Z,10.06
2022-10-31T19:11:15.271Z,10.07
2022-10-31T19:13:44.132Z,10.07
2022-10-31T19:16:14.065Z,10.10
2022-10-31T19:18:43.680Z,10.13
2022-10-31T19:21:14.201Z,10.16
2022-10-31T19:23:43.025Z,10.18
2022-10-31T19:26:12.579Z,10.22
2022-10-31T19:28:42.491Z,10.26
2022-10-31T19:31:11.499Z,10.29
2022-10-31T19:33:39.946Z,10.31
2022-10-31T19:36:10.193Z,10.35
2022-10-31T19:38:41.359Z,10.40
2022-10-31T19:41:11.065Z,10.44
2022-10-31T19:43:40.972Z,10.47
2022-10-31T19:46:17.622Z,10.52
2022-10-31T19:48:57.266Z,10.57
2022-10-31T19:51:25.466Z,10.62
2022-10-31T19:53:54.675Z,10.64
2022-10-31T19:56:24.653Z,10.68
2022-10-31T19:58:54.195Z,10.72
2022-10-31T20:01:24.243Z,10.72
2022-10-31T20:03:52.838Z,10.71
2022-10-31T20:06:24.355Z,10.73
2022-10-31T20:08:52.962Z,10.76
2022-10-31T20:11:21.124Z,10.80
2022-10-31T20:13:49.294Z,10.82
2022-10-31T20:16:19.286Z,10.82
2022-10-31T20:18:48.141Z,10.84
2022-10-31T20:21:18.115Z,10.87
2022-10-31T20:23:47.494Z,10.93
2022-10-31T20:26:17.644Z,10.93
2022-10-31T20:28:46.675Z,10.96
2022-10-31T20:31:17.905Z,10.97
2022-10-31T20:33:47.813Z,10.96
2022-10-31T20:36:19.501Z,10.96
2022-10-31T20:38:49.155Z,10.96
2022-10-31T20:41:18.484Z,10.95
2022-10-31T20:43:46.996Z,10.96
2022-10-31T20:46:18.756Z,10.96
2022-10-31T20:48:48.552Z,10.96
2022-10-31T20:51:19.281Z,10.96
2022-10-31T20:53:47.474Z,10.97
2022-10-31T20:56:17.514Z,10.97
2022-10-31T20:58:47.343Z,10.95
2022-10-31T21:01:18.510Z,10.94
2022-10-31T21:03:49.089Z,10.95
2022-10-31T21:06:18.664Z,10.96
2022-10-31T21:08:47.415Z,10.95
2022-10-31T21:11:17.583Z,10.94
2022-10-31T21:13:47.192Z,10.93
2022-10-31T21:16:17.192Z,10.93
2022-10-31T21:18:47.413Z,10.93
2022-10-31T21:21:19.685Z,10.91
2022-10-31T21:23:48.614Z,10.92
2022-10-31T21:26:20.960Z,10.92
2022-10-31T21:28:49.955Z,10.93
2022-10-31T21:31:19.691Z,10.95
2022-10-31T21:33:48.644Z,10.96
2022-10-31T21:36:18.912Z,10.95
2022-10-31T21:38:50.837Z,10.93
2022-10-31T21:41:20.103Z,10.90
2022-10-31T21:43:50.483Z,10.89
2022-10-31T21:46:21.174Z,10.88
2022-10-31T21:48:50.174Z,10.89
2022-10-31T21:51:21.380Z,10.93
2022-10-31T21:54:07.183Z,10.94
2022-10-31T21:56:35.778Z,10.98
2022-10-31T21:59:04.921Z,10.96
2022-10-31T22:01:33.790Z,10.96
2022-10-31T22:04:02.576Z,10.96
2022-10-31T22:06:33.035Z,10.95
2022-10-31T22:09:03.186Z,10.97
2022-10-31T22:11:31.410Z,11.01
2022-10-31T22:14:00.963Z,11.05
2022-10-31T22:16:30.548Z,11.08
2022-10-31T22:19:05.258Z,11.10
2022-10-31T22:21:39.154Z,11.11
2022-10-31T22:24:07.895Z,11.10
2022-10-31T22:26:36.794Z,11.07
2022-10-31T22:29:07.742Z,11.04
2022-10-31T22:31:38.804Z,10.99
2022-10-31T22:34:06.972Z,10.94
2022-10-31T22:36:37.826Z,10.90
2022-10-31T22:39:07.096Z,10.85
2022-10-31T22:41:36.920Z,10.81
2022-10-31T22:44:06.237Z,10.78
2022-10-31T22:46:36.908Z,10.77
2022-10-31T22:49:07.197Z,10.74
2022-10-31T22:51:38.804Z,10.73
2022-10-31T22:54:10.685Z,10.71
2022-10-31T22:56:38.994Z,10.68
2022-10-31T22:59:07.423Z,10.64
2022-10-31T23:01:35.836Z,10.58
2022-10-31T23:04:04.044Z,10.46
2022-10-31T23:06:33.973Z,10.35
2022-10-31T23:09:07.243Z,10.26
2022-10-31T23:11:38.212Z,10.15
2022-10-31T23:14:10.632Z,10.05
2022-10-31T23:16:42.453Z,9.95
2022-10-31T23:19:11.725Z,9.91
2022-10-31T23:21:59.517Z,9.87
2022-10-31T23:24:33.850Z,9.81
2022-10-31T23:27:08.855Z,9.83
2022-10-31T23:29:40.064Z,9.79
2022-10-31T23:32:10.456Z,9.71
2022-10-31T23:34:38.563Z,9.65
2022-10-31T23:39:37.330Z,9.55
2022-10-31T23:42:05.543Z,9.54
2022-10-31T23:44:33.624Z,9.56
2022-10-31T23:47:01.803Z,9.59
2022-10-31T23:49:29.920Z,9.61
2022-10-31T23:51:58.117Z,9.60
2022-10-31T23:54:27.353Z,9.60
2022-10-31T23:56:58.212Z,9.59
2022-10-31T23:59:27.362Z,9.57
